sensor_id;sensor_type;location;lat;lon;timestamp;pressure;altitude;pressure_sealevel;temperature;humidity
69060;BME280;56135;37.534;-122.308;2023-03-13T00:01:19;101638.44;;;14.62;100.00
69060;BME280;56135;37.534;-122.308;2023-03-13T00:03:46;101641.22;;;14.52;100.00
69060;BME280;56135;37.534;-122.308;2023-03-13T00:06:12;101641.31;;;14.46;100.00
69060;BME280;56135;37.534;-122.308;2023-03-13T00:08:39;101647.34;;;14.58;100.00
69060;BME280;56135;37.534;-122.308;2023-03-13T00:11:08;101645.50;;;14.61;100.00
69060;BME280;56135;37.534;-122.308;2023-03-13T00:13:35;101645.50;;;14.61;100.00
69060;BME280;56135;37.534;-122.308;2023-03-13T00:16:05;101653.47;;;14.61;100.00
69060;BME280;56135;37.534;-122.308;2023-03-13T00:18:31;101647.31;;;14.59;100.00
69060;BME280;56135;37.534;-122.308;2023-03-13T00:21:08;101640.06;;;14.74;100.00
69060;BME280;56135;37.534;-122.308;2023-03-13T00:23:36;101635.06;;;14.49;100.00
69060;BME280;56135;37.534;-122.308;2023-03-13T00:26:06;101621.28;;;14.22;100.00
69060;BME280;56135;37.534;-122.308;2023-03-13T00:28:52;101620.25;;;14.31;100.00
69060;BME280;56135;37.534;-122.308;2023-03-13T00:31:20;101628.19;;;14.34;100.00
69060;BME280;56135;37.534;-122.308;2023-03-13T00:33:49;101639.75;;;14.31;100.00
69060;BME280;56135;37.534;-122.308;2023-03-13T00:36:22;101632.19;;;13.99;100.00
69060;BME280;56135;37.534;-122.308;2023-03-13T00:38:50;101637.34;;;14.13;100.00
69060;BME280;56135;37.534;-122.308;2023-03-13T00:41:18;101638.31;;;14.06;100.00
69060;BME280;56135;37.534;-122.308;2023-03-13T00:43:46;101632.97;;;14.09;100.00
69060;BME280;56135;37.534;-122.308;2023-03-13T00:46:14;101637.28;;;14.16;100.00
69060;BME280;56135;37.534;-122.308;2023-03-13T00:48:40;101637.16;;;14.25;100.00
69060;BME280;56135;37.534;-122.308;2023-03-13T00:51:07;101632.56;;;14.38;100.00
69060;BME280;56135;37.534;-122.308;2023-03-13T00:53:33;101633.66;;;14.25;100.00
69060;BME280;56135;37.534;-122.308;2023-03-13T00:56:03;101639.97;;;14.16;100.00
69060;BME280;56135;37.534;-122.308;2023-03-13T00:58:31;101646.97;;;14.20;100.00
69060;BME280;56135;37.534;-122.308;2023-03-13T01:01:06;101642.72;;;14.10;100.00
69060;BME280;56135;37.534;-122.308;2023-03-13T01:03:33;101637.22;;;14.22;100.00
69060;BME280;56135;37.534;-122.308;2023-03-13T01:06:02;101645.13;;;14.27;100.00
69060;BME280;56135;37.534;-122.308;2023-03-13T01:08:29;101646.41;;;13.95;100.00
69060;BME280;56135;37.534;-122.308;2023-03-13T01:11:10;101649.97;;;13.95;100.00
69060;BME280;56135;37.534;-122.308;2023-03-13T01:13:37;101649.22;;;13.84;100.00
69060;BME280;56135;37.534;-122.308;2023-03-13T01:16:09;101644.78;;;13.86;100.00
69060;BME280;56135;37.534;-122.308;2023-03-13T01:18:37;101649.00;;;14.02;100.00
69060;BME280;56135;37.534;-122.308;2023-03-13T01:21:05;101647.97;;;14.13;100.00
69060;BME280;56135;37.534;-122.308;2023-03-13T01:23:31;101649.06;;;13.95;100.00
69060;BME280;56135;37.534;-122.308;2023-03-13T01:25:57;101650.88;;;13.94;100.00
69060;BME280;56135;37.534;-122.308;2023-03-13T01:28:36;101650.91;;;13.93;100.00
69060;BME280;56135;37.534;-122.308;2023-03-13T01:31:28;101648.38;;;13.82;100.00
69060;BME280;56135;37.534;-122.308;2023-03-13T01:33:57;101649.06;;;13.95;100.00
69060;BME280;56135;37.534;-122.308;2023-03-13T01:36:25;101659.91;;;13.78;100.00
69060;BME280;56135;37.534;-122.308;2023-03-13T01:38:54;101661.72;;;13.74;100.00
69060;BME280;56135;37.534;-122.308;2023-03-13T01:41:21;101664.41;;;13.70;100.00
69060;BME280;56135;37.534;-122.308;2023-03-13T01:43:48;101662.72;;;13.64;100.00
69060;BME280;56135;37.534;-122.308;2023-03-13T01:46:15;101652.94;;;13.66;100.00
69060;BME280;56135;37.534;-122.308;2023-03-13T01:54:28;101670.88;;;13.47;100.00
69060;BME280;56135;37.534;-122.308;2023-03-13T01:57:07;101663.59;;;13.64;100.00
69060;BME280;56135;37.534;-122.308;2023-03-13T02:00:00;101666.53;;;13.33;100.00
69060;BME280;56135;37.534;-122.308;2023-03-13T02:02:29;101656.06;;;13.18;100.00
69060;BME280;56135;37.534;-122.308;2023-03-13T02:04:56;101666.66;;;13.23;100.00
69060;BME280;56135;37.534;-122.308;2023-03-13T02:07:42;101662.38;;;13.05;100.00
69060;BME280;56135;37.534;-122.308;2023-03-13T02:10:11;101661.56;;;12.95;100.00
69060;BME280;56135;37.534;-122.308;2023-03-13T02:12:39;101666.84;;;12.96;100.00
69060;BME280;56135;37.534;-122.308;2023-03-13T02:15:14;101668.69;;;12.88;100.00
69060;BME280;56135;37.534;-122.308;2023-03-13T02:17:41;101674.00;;;12.88;100.00
69060;BME280;56135;37.534;-122.308;2023-03-13T02:20:08;101667.81;;;12.86;100.00
69060;BME280;56135;37.534;-122.308;2023-03-13T02:28:00;101659.00;;;12.85;100.00
69060;BME280;56135;37.534;-122.308;2023-03-13T02:30:28;101672.41;;;12.65;100.00
69060;BME280;56135;37.534;-122.308;2023-03-13T02:32:55;101674.13;;;12.66;100.00
69060;BME280;56135;37.534;-122.308;2023-03-13T02:35:22;101682.09;;;12.66;100.00
69060;BME280;56135;37.534;-122.308;2023-03-13T02:37:59;101673.28;;;12.63;100.00
69060;BME280;56135;37.534;-122.308;2023-03-13T02:40:29;101673.28;;;12.63;100.00
69060;BME280;56135;37.534;-122.308;2023-03-13T02:42:59;101676.00;;;12.49;100.00
69060;BME280;56135;37.534;-122.308;2023-03-13T02:45:26;101679.53;;;12.48;100.00
69060;BME280;56135;37.534;-122.308;2023-03-13T02:47:52;101682.22;;;12.49;100.00
69060;BME280;56135;37.534;-122.308;2023-03-13T02:50:19;101678.69;;;12.46;100.00
69060;BME280;56135;37.534;-122.308;2023-03-13T02:52:56;101686.63;;;12.52;100.00
69060;BME280;56135;37.534;-122.308;2023-03-13T02:55:27;101693.69;;;12.50;100.00
69060;BME280;56135;37.534;-122.308;2023-03-13T02:57:54;101693.69;;;12.50;100.00
69060;BME280;56135;37.534;-122.308;2023-03-13T03:00:20;101692.81;;;12.49;100.00
69060;BME280;56135;37.534;-122.308;2023-03-13T03:02:55;101701.63;;;12.50;100.00
69060;BME280;56135;37.534;-122.308;2023-03-13T03:05:22;101700.78;;;12.43;100.00
69060;BME280;56135;37.534;-122.308;2023-03-13T03:07:49;101706.09;;;12.37;100.00
69060;BME280;56135;37.534;-122.308;2023-03-13T03:10:16;101707.91;;;12.33;100.00
69060;BME280;56135;37.534;-122.308;2023-03-13T03:12:43;101709.59;;;12.44;100.00
69060;BME280;56135;37.534;-122.308;2023-03-13T03:15:10;101707.00;;;12.39;100.00
69060;BME280;56135;37.534;-122.308;2023-03-13T03:17:38;101712.28;;;12.41;100.00
69060;BME280;56135;37.534;-122.308;2023-03-13T03:20:04;101699.91;;;12.46;100.00
69060;BME280;56135;37.534;-122.308;2023-03-13T03:22:37;101704.34;;;12.39;100.00
69060;BME280;56135;37.534;-122.308;2023-03-13T03:25:06;101714.97;;;12.33;100.00
69060;BME280;56135;37.534;-122.308;2023-03-13T03:27:34;101737.06;;;12.33;100.00
69060;BME280;56135;37.534;-122.308;2023-03-13T03:30:02;101726.41;;;12.40;100.00
69060;BME280;56135;37.534;-122.308;2023-03-13T03:32:28;101730.81;;;12.45;100.00
69060;BME280;56135;37.534;-122.308;2023-03-13T03:34:54;101729.03;;;12.46;100.00
69060;BME280;56135;37.534;-122.308;2023-03-13T03:37:21;101734.31;;;12.55;100.00
69060;BME280;56135;37.534;-122.308;2023-03-13T03:39:47;101731.66;;;12.55;100.00
69060;BME280;56135;37.534;-122.308;2023-03-13T03:42:13;101741.38;;;12.53;100.00
69060;BME280;56135;37.534;-122.308;2023-03-13T03:44:39;101736.06;;;12.56;100.00
69060;BME280;56135;37.534;-122.308;2023-03-13T03:47:07;101747.53;;;12.63;100.00
69060;BME280;56135;37.534;-122.308;2023-03-13T03:49:33;101740.41;;;12.70;100.00
69060;BME280;56135;37.534;-122.308;2023-03-13T03:51:59;101745.72;;;12.66;100.00
69060;BME280;56135;37.534;-122.308;2023-03-13T03:54:26;101742.19;;;12.64;100.00
69060;BME280;56135;37.534;-122.308;2023-03-13T03:56:52;101750.16;;;12.64;100.00
69060;BME280;56135;37.534;-122.308;2023-03-13T03:59:18;101745.75;;;12.60;100.00
69060;BME280;56135;37.534;-122.308;2023-03-13T04:01:44;101755.47;;;12.58;100.00
69060;BME280;56135;37.534;-122.308;2023-03-13T04:04:10;101764.34;;;12.59;100.00
69060;BME280;56135;37.534;-122.308;2023-03-13T04:06:37;101763.44;;;12.58;100.00
69060;BME280;56135;37.534;-122.308;2023-03-13T04:09:03;101760.78;;;12.57;100.00
69060;BME280;56135;37.534;-122.308;2023-03-13T04:11:29;101773.16;;;12.53;100.00
69060;BME280;56135;37.534;-122.308;2023-03-13T04:13:55;101772.28;;;12.60;100.00
69060;BME280;56135;37.534;-122.308;2023-03-13T04:16:22;101763.47;;;12.54;100.00
69060;BME280;56135;37.534;-122.308;2023-03-13T04:18:48;101759.00;;;12.57;100.00
69060;BME280;56135;37.534;-122.308;2023-03-13T04:21:14;101770.53;;;12.56;100.00
69060;BME280;56135;37.534;-122.308;2023-03-13T04:23:40;101770.50;;;12.59;100.00
69060;BME280;56135;37.534;-122.308;2023-03-13T04:26:07;101769.63;;;12.56;100.00
69060;BME280;56135;37.534;-122.308;2023-03-13T04:28:33;101772.31;;;12.51;100.00
69060;BME280;56135;37.534;-122.308;2023-03-13T04:30:59;101779.38;;;12.47;100.00
69060;BME280;56135;37.534;-122.308;2023-03-13T04:33:26;101780.25;;;12.48;100.00
69060;BME280;56135;37.534;-122.308;2023-03-13T04:35:52;101794.41;;;12.50;100.00
69060;BME280;56135;37.534;-122.308;2023-03-13T04:38:18;101790.00;;;12.41;100.00
69060;BME280;56135;37.534;-122.308;2023-03-13T04:40:45;101797.09;;;12.45;100.00
69060;BME280;56135;37.534;-122.308;2023-03-13T04:43:12;101783.81;;;12.47;100.00
69060;BME280;56135;37.534;-122.308;2023-03-13T04:45:38;101791.75;;;12.48;100.00
69060;BME280;56135;37.534;-122.308;2023-03-13T04:48:05;101793.50;;;12.51;100.00
69060;BME280;56135;37.534;-122.308;2023-03-13T04:50:31;101788.19;;;12.54;100.00
69060;BME280;56135;37.534;-122.308;2023-03-13T04:52:57;101783.72;;;12.62;100.00
69060;BME280;56135;37.534;-122.308;2023-03-13T04:55:23;101794.34;;;12.59;100.00
69060;BME280;56135;37.534;-122.308;2023-03-13T04:57:50;101798.81;;;12.49;100.00
69060;BME280;56135;37.534;-122.308;2023-03-13T05:00:16;101799.69;;;12.53;100.00
69060;BME280;56135;37.534;-122.308;2023-03-13T05:02:42;101799.66;;;12.59;100.00
69060;BME280;56135;37.534;-122.308;2023-03-13T05:05:08;101795.28;;;12.52;100.00
69060;BME280;56135;37.534;-122.308;2023-03-13T05:07:35;101793.47;;;12.62;100.00
69060;BME280;56135;37.534;-122.308;2023-03-13T05:10:01;101793.50;;;12.59;100.00
69060;BME280;56135;37.534;-122.308;2023-03-13T05:12:27;101796.16;;;12.54;100.00
69060;BME280;56135;37.534;-122.308;2023-03-13T05:14:53;101809.38;;;12.57;100.00
69060;BME280;56135;37.534;-122.308;2023-03-13T05:17:27;101805.00;;;12.55;100.00
69060;BME280;56135;37.534;-122.308;2023-03-13T05:19:59;101811.13;;;12.60;100.00
69060;BME280;56135;37.534;-122.308;2023-03-13T05:22:41;101804.06;;;12.62;100.00
69060;BME280;56135;37.534;-122.308;2023-03-13T05:28:10;101799.66;;;12.58;100.00
69060;BME280;56135;37.534;-122.308;2023-03-13T05:30:45;101809.38;;;12.60;100.00
69060;BME280;56135;37.534;-122.308;2023-03-13T05:33:22;101810.25;;;12.62;100.00
69060;BME280;56135;37.534;-122.308;2023-03-13T05:36:02;101808.50;;;12.58;100.00
69060;BME280;56135;37.534;-122.308;2023-03-13T05:38:28;101796.13;;;12.60;100.00
69060;BME280;56135;37.534;-122.308;2023-03-13T05:40:54;101795.22;;;12.66;100.00
69060;BME280;56135;37.534;-122.308;2023-03-13T05:43:21;101804.06;;;12.57;100.00
69060;BME280;56135;37.534;-122.308;2023-03-13T05:45:47;101804.09;;;12.60;100.00
69060;BME280;56135;37.534;-122.308;2023-03-13T05:48:13;101808.50;;;12.61;100.00
69060;BME280;56135;37.534;-122.308;2023-03-13T05:50:39;101804.06;;;12.62;100.00
69060;BME280;56135;37.534;-122.308;2023-03-13T05:53:05;101808.47;;;12.64;100.00
69060;BME280;56135;37.534;-122.308;2023-03-13T05:55:34;101799.72;;;12.41;100.00
69060;BME280;56135;37.534;-122.308;2023-03-13T05:58:19;101800.59;;;12.46;100.00
69060;BME280;56135;37.534;-122.308;2023-03-13T06:00:45;101799.75;;;12.38;100.00
69060;BME280;56135;37.534;-122.308;2023-03-13T06:03:11;101805.91;;;12.46;100.00
69060;BME280;56135;37.534;-122.308;2023-03-13T06:05:37;101802.38;;;12.45;100.00
69060;BME280;56135;37.534;-122.308;2023-03-13T06:08:04;101808.50;;;12.58;100.00
69060;BME280;56135;37.534;-122.308;2023-03-13T06:10:30;101802.34;;;12.56;100.00
69060;BME280;56135;37.534;-122.308;2023-03-13T06:12:56;101811.16;;;12.50;100.00
69060;BME280;56135;37.534;-122.308;2023-03-13T06:15:23;101819.13;;;12.55;100.00
69060;BME280;56135;37.534;-122.308;2023-03-13T06:17:49;101826.19;;;12.53;100.00
69060;BME280;56135;37.534;-122.308;2023-03-13T06:20:15;101829.69;;;12.58;100.00
69060;BME280;56135;37.534;-122.308;2023-03-13T06:22:41;101831.50;;;12.48;100.00
69060;BME280;56135;37.534;-122.308;2023-03-13T06:25:08;101825.34;;;12.49;100.00
69060;BME280;56135;37.534;-122.308;2023-03-13T06:27:35;101829.78;;;12.35;100.00
69060;BME280;56135;37.534;-122.308;2023-03-13T06:30:01;101834.19;;;12.38;100.00
69060;BME280;56135;37.534;-122.308;2023-03-13T06:32:27;101839.44;;;12.53;100.00
69060;BME280;56135;37.534;-122.308;2023-03-13T06:34:53;101831.56;;;12.36;100.00
69060;BME280;56135;37.534;-122.308;2023-03-13T06:37:20;101837.69;;;12.47;100.00
69060;BME280;56135;37.534;-122.308;2023-03-13T06:39:46;101826.28;;;12.24;100.00
69060;BME280;56135;37.534;-122.308;2023-03-13T06:42:12;101826.28;;;12.30;100.00
69060;BME280;56135;37.534;-122.308;2023-03-13T06:44:38;101823.63;;;12.25;100.00
69060;BME280;56135;37.534;-122.308;2023-03-13T06:47:06;101831.53;;;12.41;100.00
69060;BME280;56135;37.534;-122.308;2023-03-13T06:49:32;101831.53;;;12.45;100.00
69060;BME280;56135;37.534;-122.308;2023-03-13T06:51:58;101835.03;;;12.50;100.00
69060;BME280;56135;37.534;-122.308;2023-03-13T06:54:25;101820.03;;;12.49;100.00
69060;BME280;56135;37.534;-122.308;2023-03-13T06:56:51;101828.91;;;12.38;100.00
69060;BME280;56135;37.534;-122.308;2023-03-13T06:59:17;101835.97;;;12.29;100.00
69060;BME280;56135;37.534;-122.308;2023-03-13T07:01:43;101836.81;;;12.44;100.00
69060;BME280;56135;37.534;-122.308;2023-03-13T07:04:11;101840.38;;;12.37;100.00
69060;BME280;56135;37.534;-122.308;2023-03-13T07:06:38;101843.91;;;12.42;100.00
69060;BME280;56135;37.534;-122.308;2023-03-13T07:09:04;101839.44;;;12.50;100.00
69060;BME280;56135;37.534;-122.308;2023-03-13T07:11:30;101840.38;;;12.37;100.00
69060;BME280;56135;37.534;-122.308;2023-03-13T07:13:57;101841.25;;;12.29;100.00
69060;BME280;56135;37.534;-122.308;2023-03-13T07:16:26;101838.63;;;12.26;100.00
69060;BME280;56135;37.534;-122.308;2023-03-13T07:18:53;101836.84;;;12.41;100.00
69060;BME280;56135;37.534;-122.308;2023-03-13T07:21:19;101844.75;;;12.48;100.00
69060;BME280;56135;37.534;-122.308;2023-03-13T07:23:45;101839.44;;;12.50;100.00
69060;BME280;56135;37.534;-122.308;2023-03-13T07:26:14;101842.97;;;12.50;100.00
69060;BME280;56135;37.534;-122.308;2023-03-13T07:28:41;101840.34;;;12.46;100.00
69060;BME280;56135;37.534;-122.308;2023-03-13T07:33:33;101851.84;;;12.43;100.00
69060;BME280;56135;37.534;-122.308;2023-03-13T07:36:00;101853.63;;;12.44;100.00
69060;BME280;56135;37.534;-122.308;2023-03-13T07:38:26;101850.97;;;12.40;100.00
69060;BME280;56135;37.534;-122.308;2023-03-13T07:40:53;101859.81;;;12.42;100.00
69060;BME280;56135;37.534;-122.308;2023-03-13T07:43:20;101849.19;;;12.39;100.00
69060;BME280;56135;37.534;-122.308;2023-03-13T07:45:55;101853.63;;;12.38;100.00
69060;BME280;56135;37.534;-122.308;2023-03-13T07:48:24;101863.34;;;12.39;100.00
69060;BME280;56135;37.534;-122.308;2023-03-13T07:50:50;101866.00;;;12.38;100.00
69060;BME280;56135;37.534;-122.308;2023-03-13T07:53:17;101866.88;;;12.32;100.00
69060;BME280;56135;37.534;-122.308;2023-03-13T07:55:56;101875.69;;;12.39;100.00
69060;BME280;56135;37.534;-122.308;2023-03-13T07:58:25;101870.38;;;12.39;100.00
69060;BME280;56135;37.534;-122.308;2023-03-13T08:00:51;101865.97;;;12.41;100.00
69060;BME280;56135;37.534;-122.308;2023-03-13T08:03:18;101865.09;;;12.39;100.00
69060;BME280;56135;37.534;-122.308;2023-03-13T08:05:44;101866.88;;;12.43;100.00
69060;BME280;56135;37.534;-122.308;2023-03-13T08:08:11;101868.63;;;12.44;100.00
69060;BME280;56135;37.534;-122.308;2023-03-13T08:10:37;101864.19;;;12.41;100.00
69060;BME280;56135;37.534;-122.308;2023-03-13T08:13:03;101860.69;;;12.34;100.00
69060;BME280;56135;37.534;-122.308;2023-03-13T08:15:29;101864.22;;;12.38;100.00
69060;BME280;56135;37.534;-122.308;2023-03-13T08:17:56;101865.09;;;12.39;100.00
69060;BME280;56135;37.534;-122.308;2023-03-13T08:20:22;101869.53;;;12.38;100.00
69060;BME280;56135;37.534;-122.308;2023-03-13T08:22:49;101866.88;;;12.37;100.00
69060;BME280;56135;37.534;-122.308;2023-03-13T08:25:16;101859.81;;;12.29;100.00
69060;BME280;56135;37.534;-122.308;2023-03-13T08:27:42;101864.25;;;12.27;100.00
69060;BME280;56135;37.534;-122.308;2023-03-13T08:30:09;101866.91;;;12.24;100.00
69060;BME280;56135;37.534;-122.308;2023-03-13T08:32:35;101871.34;;;12.17;100.00
69060;BME280;56135;37.534;-122.308;2023-03-13T08:35:02;101878.38;;;12.18;100.00
69060;BME280;56135;37.534;-122.308;2023-03-13T08:37:28;101866.06;;;12.10;100.00
69060;BME280;56135;37.534;-122.308;2023-03-13T08:39:55;101857.22;;;12.03;100.00
69060;BME280;56135;37.534;-122.308;2023-03-13T08:42:22;101862.50;;;12.08;100.00
69060;BME280;56135;37.534;-122.308;2023-03-13T08:44:48;101858.97;;;12.16;100.00
69060;BME280;56135;37.534;-122.308;2023-03-13T08:47:15;101859.84;;;12.17;100.00
69060;BME280;56135;37.534;-122.308;2023-03-13T08:49:43;101863.38;;;12.21;100.00
69060;BME280;56135;37.534;-122.308;2023-03-13T08:52:09;101864.25;;;12.24;100.00
69060;BME280;56135;37.534;-122.308;2023-03-13T08:54:36;101863.34;;;12.25;100.00
69060;BME280;56135;37.534;-122.308;2023-03-13T08:57:02;101857.19;;;12.25;100.00
69060;BME280;56135;37.534;-122.308;2023-03-13T08:59:28;101858.09;;;12.19;100.00
69060;BME280;56135;37.534;-122.308;2023-03-13T09:01:54;101852.81;;;12.11;100.00
69060;BME280;56135;37.534;-122.308;2023-03-13T09:04:21;101858.09;;;12.10;100.00
69060;BME280;56135;37.534;-122.308;2023-03-13T09:06:47;101850.13;;;12.07;100.00
69060;BME280;56135;37.534;-122.308;2023-03-13T09:09:13;101853.69;;;12.07;100.00
69060;BME280;56135;37.534;-122.308;2023-03-13T09:11:39;101854.59;;;12.03;100.00
69060;BME280;56135;37.534;-122.308;2023-03-13T09:14:07;101851.91;;;12.00;100.00
69060;BME280;56135;37.534;-122.308;2023-03-13T09:16:34;101856.34;;;11.96;100.00
69060;BME280;56135;37.534;-122.308;2023-03-13T09:19:00;101854.53;;;11.89;100.00
69060;BME280;56135;37.534;-122.308;2023-03-13T09:21:28;101858.94;;;11.84;100.00
69060;BME280;56135;37.534;-122.308;2023-03-13T09:23:54;101858.06;;;11.76;100.00
69060;BME280;56135;37.534;-122.308;2023-03-13T09:26:20;101858.06;;;11.69;100.00
69060;BME280;56135;37.534;-122.308;2023-03-13T09:28:47;101850.13;;;11.65;100.00
69060;BME280;56135;37.534;-122.308;2023-03-13T09:31:22;101854.56;;;11.57;100.00
69060;BME280;56135;37.534;-122.308;2023-03-13T09:33:49;101851.91;;;11.57;100.00
69060;BME280;56135;37.534;-122.308;2023-03-13T09:36:16;101848.34;;;11.48;100.00
69060;BME280;56135;37.534;-122.308;2023-03-13T09:38:43;101845.72;;;11.41;100.00
69060;BME280;56135;37.534;-122.308;2023-03-13T09:46:55;101854.50;;;11.20;100.00
69060;BME280;56135;37.534;-122.308;2023-03-13T09:49:28;101852.69;;;11.14;100.00
69060;BME280;56135;37.534;-122.308;2023-03-13T09:52:17;101853.56;;;11.05;100.00
69060;BME280;56135;37.534;-122.308;2023-03-13T09:55:09;101852.66;;;10.98;100.00
69060;BME280;56135;37.534;-122.308;2023-03-13T09:58:10;101858.78;;;10.93;100.00
69060;BME280;56135;37.534;-122.308;2023-03-13T10:00:39;101857.88;;;10.86;100.00
69060;BME280;56135;37.534;-122.308;2023-03-13T10:03:57;101856.13;;;10.80;100.00
69060;BME280;56135;37.534;-122.308;2023-03-13T10:06:12;101851.69;;;10.76;100.00
69060;BME280;56135;37.534;-122.308;2023-03-13T10:08:41;101849.91;;;10.71;100.00
69060;BME280;56135;37.534;-122.308;2023-03-13T10:11:11;101850.75;;;10.60;100.00
69060;BME280;56135;37.534;-122.308;2023-03-13T10:16:39;101843.66;;;10.51;100.00
69060;BME280;56135;37.534;-122.308;2023-03-13T10:19:13;101840.13;;;10.51;100.00
69060;BME280;56135;37.534;-122.308;2023-03-13T10:21:42;101838.34;;;10.47;100.00
69060;BME280;56135;37.534;-122.308;2023-03-13T10:24:16;101838.34;;;10.45;100.00
69060;BME280;56135;37.534;-122.308;2023-03-13T10:26:44;101836.56;;;10.43;100.00
69060;BME280;56135;37.534;-122.308;2023-03-13T10:29:20;101833.88;;;10.37;100.00
69060;BME280;56135;37.534;-122.308;2023-03-13T10:34:18;101823.22;;;10.23;100.00
69060;BME280;56135;37.534;-122.308;2023-03-13T10:36:47;101823.22;;;10.23;100.00
69060;BME280;56135;37.534;-122.308;2023-03-13T10:39:20;101822.31;;;10.19;100.00
69060;BME280;56135;37.534;-122.308;2023-03-13T10:41:48;101828.47;;;10.16;100.00
69060;BME280;56135;37.534;-122.308;2023-03-13T10:44:16;101828.47;;;10.16;100.00
69060;BME280;56135;37.534;-122.308;2023-03-13T10:46:46;101826.72;;;10.18;100.00
69060;BME280;56135;37.534;-122.308;2023-03-13T10:49:19;101824.94;;;10.16;100.00
69060;BME280;56135;37.534;-122.308;2023-03-13T10:51:49;101829.31;;;10.14;100.00
69060;BME280;56135;37.534;-122.308;2023-03-13T10:56:52;101837.22;;;10.09;100.00
69060;BME280;56135;37.534;-122.308;2023-03-13T10:59:32;101834.59;;;10.11;100.00
69060;BME280;56135;37.534;-122.308;2023-03-13T11:02:20;101831.97;;;10.15;100.00
69060;BME280;56135;37.534;-122.308;2023-03-13T11:04:47;101833.69;;;10.12;100.00
69060;BME280;56135;37.534;-122.308;2023-03-13T11:07:38;101839.88;;;10.11;100.00
69060;BME280;56135;37.534;-122.308;2023-03-13T11:12:52;101825.78;;;10.10;100.00
69060;BME280;56135;37.534;-122.308;2023-03-13T11:15:45;101815.19;;;10.07;100.00
69060;BME280;56135;37.534;-122.308;2023-03-13T11:19:12;101818.66;;;9.98;100.00
69060;BME280;56135;37.534;-122.308;2023-03-13T11:21:27;101817.72;;;9.93;100.00
69060;BME280;56135;37.534;-122.308;2023-03-13T11:24:07;101816.81;;;9.87;100.00
69060;BME280;56135;37.534;-122.308;2023-03-13T11:27:14;101812.38;;;9.84;100.00
69060;BME280;56135;37.534;-122.308;2023-03-13T11:35:00;101812.31;;;9.73;100.00
69060;BME280;56135;37.534;-122.308;2023-03-13T11:37:32;101807.00;;;9.68;100.00
69060;BME280;56135;37.534;-122.308;2023-03-13T11:40:20;101806.97;;;9.64;100.00
69060;BME280;56135;37.534;-122.308;2023-03-13T11:46:06;101806.03;;;9.59;100.00
69060;BME280;56135;37.534;-122.308;2023-03-13T11:51:36;101809.53;;;9.56;100.00
69060;BME280;56135;37.534;-122.308;2023-03-13T11:56:59;101824.56;;;9.63;100.00
69060;BME280;56135;37.534;-122.308;2023-03-13T11:59:41;101814.94;;;9.68;100.00
69060;BME280;56135;37.534;-122.308;2023-03-13T12:05:03;101819.38;;;9.76;100.00
69060;BME280;56135;37.534;-122.308;2023-03-13T12:07:37;101806.19;;;9.76;100.00
69060;BME280;56135;37.534;-122.308;2023-03-13T12:17:59;101815.88;;;9.78;100.00
69060;BME280;56135;37.534;-122.308;2023-03-13T12:20:39;101809.69;;;9.75;100.00
69060;BME280;56135;37.534;-122.308;2023-03-13T12:23:15;101813.22;;;9.74;100.00
69060;BME280;56135;37.534;-122.308;2023-03-13T12:28:48;101805.31;;;9.74;100.00
69060;BME280;56135;37.534;-122.308;2023-03-13T12:39:38;101798.25;;;9.76;100.00
69060;BME280;56135;37.534;-122.308;2023-03-13T12:44:48;101794.75;;;9.78;100.00
69060;BME280;56135;37.534;-122.308;2023-03-13T12:47:16;101793.91;;;9.82;100.00
69060;BME280;56135;37.534;-122.308;2023-03-13T12:50:01;101789.53;;;9.81;100.00
69060;BME280;56135;37.534;-122.308;2023-03-13T12:52:35;101794.81;;;9.83;100.00
69060;BME280;56135;37.534;-122.308;2023-03-13T13:00:21;101796.59;;;9.87;100.00
69060;BME280;56135;37.534;-122.308;2023-03-13T13:05:34;101792.25;;;9.92;100.00
69060;BME280;56135;37.534;-122.308;2023-03-13T13:08:00;101790.50;;;9.97;100.00
69060;BME280;56135;37.534;-122.308;2023-03-13T13:10:26;101793.16;;;9.99;100.00
69060;BME280;56135;37.534;-122.308;2023-03-13T13:13:16;101794.03;;;10.01;100.00
69060;BME280;56135;37.534;-122.308;2023-03-13T13:16:06;101801.94;;;9.99;100.00
69060;BME280;56135;37.534;-122.308;2023-03-13T13:18:36;101800.22;;;10.00;100.00
69060;BME280;56135;37.534;-122.308;2023-03-13T13:37:02;101831.16;;;10.24;100.00
69060;BME280;56135;37.534;-122.308;2023-03-13T13:44:59;101830.31;;;10.31;100.00
69060;BME280;56135;37.534;-122.308;2023-03-13T13:47:27;101830.38;;;10.36;100.00
69060;BME280;56135;37.534;-122.308;2023-03-13T13:49:58;101838.31;;;10.38;100.00
69060;BME280;56135;37.534;-122.308;2023-03-13T13:52:32;101844.47;;;10.40;100.00
69060;BME280;56135;37.534;-122.308;2023-03-13T13:54:59;101841.00;;;10.44;100.00
69060;BME280;56135;37.534;-122.308;2023-03-13T13:57:28;101834.84;;;10.48;100.00
69060;BME280;56135;37.534;-122.308;2023-03-13T14:00:15;101826.88;;;10.40;100.00
69060;BME280;56135;37.534;-122.308;2023-03-13T14:02:55;101828.69;;;10.54;100.00
69060;BME280;56135;37.534;-122.308;2023-03-13T14:05:28;101833.13;;;10.59;100.00
69060;BME280;56135;37.534;-122.308;2023-03-13T14:08:07;101839.31;;;10.63;100.00